createdAt,value
2023-11-16T00:02:44.417Z,8.93
2023-11-16T00:17:47.466Z,7.80
2023-11-16T00:32:49.577Z,8.32
2023-11-16T00:47:51.579Z,8.18
2023-11-16T01:02:54.196Z,7.93
2023-11-16T01:17:57.773Z,8.40
2023-11-16T01:33:00.108Z,8.40
2023-11-16T01:48:05.355Z,7.90
2023-11-16T02:03:07.578Z,8.10
2023-11-16T02:18:09.721Z,7.93
2023-11-16T02:33:11.813Z,8.10
2023-11-16T02:48:14.892Z,8.20
2023-11-16T03:03:16.984Z,7.78
2023-11-16T03:18:19.784Z,9.75
2023-11-16T03:33:21.880Z,8.80
2023-11-16T03:48:24.459Z,9.30
2023-11-16T04:03:26.708Z,8.40
2023-11-16T04:18:28.849Z,8.50
2023-11-16T04:33:31.015Z,8.75
2023-11-16T04:48:34.113Z,9.73
2023-11-16T05:03:36.469Z,8.93
2023-11-16T05:18:40.195Z,10.05
2023-11-16T05:33:42.597Z,10.90
2023-11-16T05:48:45.942Z,9.60
2023-11-16T06:03:48.290Z,9.70
2023-11-16T06:18:51.168Z,8.70
2023-11-16T06:33:53.352Z,8.60
2023-11-16T06:48:58.311Z,9.05
2023-11-16T07:04:00.744Z,8.18
2023-11-16T07:19:02.879Z,9.15
2023-11-16T07:34:05.005Z,10.43
2023-11-16T07:49:07.022Z,10.07
2023-11-16T08:04:11.520Z,9.88
2023-11-16T08:19:13.624Z,9.35
2023-11-16T08:34:16.884Z,9.70
2023-11-16T08:49:19.084Z,9.23
2023-11-16T09:04:22.488Z,8.88
2023-11-16T09:19:24.809Z,9.30
2023-11-16T09:34:28.514Z,9.40
2023-11-16T09:49:32.211Z,9.98
2023-11-16T10:04:34.912Z,8.93
2023-11-16T10:19:36.959Z,8.85
2023-11-16T10:34:38.955Z,9.15
2023-11-16T10:49:40.960Z,9.77
2023-11-16T11:04:43.323Z,8.60
2023-11-16T11:19:59.928Z,8.32
2023-11-16T11:35:13.086Z,9.18
2023-11-16T11:50:20.561Z,8.80
2023-11-16T12:05:22.846Z,8.70
2023-11-16T12:20:25.032Z,9.55
2023-11-16T12:35:29.584Z,8.73
2023-11-16T12:50:31.548Z,8.75
2023-11-16T13:05:35.961Z,8.90
2023-11-16T13:20:37.914Z,8.90
2023-11-16T13:35:40.003Z,8.95
2023-11-16T13:50:43.803Z,8.70
2023-11-16T14:05:46.288Z,9.73
2023-11-16T14:20:48.555Z,9.32
2023-11-16T14:35:50.627Z,9.70
2023-11-16T14:50:52.654Z,9.60
2023-11-16T15:05:54.765Z,8.80
2023-11-16T15:20:56.857Z,8.70
2023-11-16T15:35:58.885Z,8.80
2023-11-16T15:51:02.065Z,8.77
2023-11-16T16:06:07.038Z,8.93
2023-11-16T16:21:10.414Z,9.77
2023-11-16T16:36:12.810Z,9.60
2023-11-16T16:51:15.035Z,9.40
2023-11-16T17:06:17.059Z,9.10
2023-11-16T17:21:22.300Z,9.38
2023-11-16T17:36:24.477Z,9.45
2023-11-16T17:51:26.611Z,8.82
2023-11-16T18:06:28.575Z,9.48
2023-11-16T18:21:30.609Z,8.98
2023-11-16T18:36:32.849Z,10.20
2023-11-16T18:51:37.511Z,11.05
2023-11-16T19:06:39.644Z,13.07
2023-11-16T19:21:43.635Z,11.90
2023-11-16T19:36:45.725Z,11.43
2023-11-16T19:51:47.755Z,11.85
2023-11-16T20:06:49.736Z,11.43
2023-11-16T20:21:55.313Z,11.60
2023-11-16T20:36:58.512Z,11.82
2023-11-16T20:52:00.883Z,11.98
2023-11-16T21:07:04.162Z,10.82
2023-11-16T21:22:06.392Z,10.98
2023-11-16T21:37:09.189Z,11.50
2023-11-16T21:52:11.530Z,10.65
2023-11-16T22:07:13.618Z,10.25
2023-11-16T22:22:17.089Z,10.32
2023-11-16T22:37:20.037Z,10.43
2023-11-16T22:52:23.035Z,10.50
2023-11-16T23:07:25.407Z,10.10
2023-11-16T23:22:28.017Z,10.15
2023-11-16T23:37:29.990Z,10.80
2023-11-16T23:52:33.150Z,9.70
